sensor_id;sensor_type;location;lat;lon;timestamp;P1;durP1;ratioP1;P2;durP2;ratioP2
51852;SDS011;37894;53.172;6.598;2023-10-19T00:01:20;42.70;;;27.10;;
51852;SDS011;37894;53.172;6.598;2023-10-19T00:03:51;43.42;;;26.40;;
51852;SDS011;37894;53.172;6.598;2023-10-19T00:06:21;42.55;;;25.45;;
51852;SDS011;37894;53.172;6.598;2023-10-19T00:08:48;42.35;;;26.15;;
51852;SDS011;37894;53.172;6.598;2023-10-19T00:11:17;38.05;;;23.50;;
51852;SDS011;37894;53.172;6.598;2023-10-19T00:13:51;44.78;;;27.48;;
51852;SDS011;37894;53.172;6.598;2023-10-19T00:16:21;42.03;;;25.20;;
51852;SDS011;37894;53.172;6.598;2023-10-19T00:18:48;49.60;;;26.83;;
51852;SDS011;37894;53.172;6.598;2023-10-19T00:21:15;44.35;;;27.25;;
51852;SDS011;37894;53.172;6.598;2023-10-19T00:23:44;45.47;;;27.13;;
51852;SDS011;37894;53.172;6.598;2023-10-19T00:26:12;38.88;;;23.55;;
51852;SDS011;37894;53.172;6.598;2023-10-19T00:28:50;41.65;;;25.13;;
51852;SDS011;37894;53.172;6.598;2023-10-19T00:31:26;43.70;;;24.70;;
51852;SDS011;37894;53.172;6.598;2023-10-19T00:33:52;48.28;;;26.17;;
51852;SDS011;37894;53.172;6.598;2023-10-19T00:36:19;43.95;;;26.98;;
51852;SDS011;37894;53.172;6.598;2023-10-19T00:38:46;39.28;;;24.13;;
51852;SDS011;37894;53.172;6.598;2023-10-19T00:41:12;42.92;;;25.05;;
51852;SDS011;37894;53.172;6.598;2023-10-19T00:43:41;42.85;;;25.75;;
51852;SDS011;37894;53.172;6.598;2023-10-19T00:46:17;48.90;;;28.50;;
51852;SDS011;37894;53.172;6.598;2023-10-19T00:48:44;42.17;;;25.48;;
51852;SDS011;37894;53.172;6.598;2023-10-19T00:51:22;49.35;;;26.80;;
51852;SDS011;37894;53.172;6.598;2023-10-19T00:56:38;44.40;;;27.60;;
51852;SDS011;37894;53.172;6.598;2023-10-19T00:59:11;51.65;;;28.80;;
51852;SDS011;37894;53.172;6.598;2023-10-19T01:01:44;46.80;;;26.85;;
51852;SDS011;37894;53.172;6.598;2023-10-19T01:04:13;56.05;;;29.45;;
51852;SDS011;37894;53.172;6.598;2023-10-19T01:06:41;44.88;;;28.65;;
51852;SDS011;37894;53.172;6.598;2023-10-19T01:09:09;53.30;;;28.25;;
51852;SDS011;37894;53.172;6.598;2023-10-19T01:11:40;51.15;;;30.52;;
51852;SDS011;37894;53.172;6.598;2023-10-19T01:14:20;54.28;;;29.00;;
51852;SDS011;37894;53.172;6.598;2023-10-19T01:16:47;56.58;;;31.13;;
51852;SDS011;37894;53.172;6.598;2023-10-19T01:19:15;57.33;;;31.17;;
51852;SDS011;37894;53.172;6.598;2023-10-19T01:21:44;51.70;;;29.85;;
51852;SDS011;37894;53.172;6.598;2023-10-19T01:24:17;47.45;;;27.65;;
51852;SDS011;37894;53.172;6.598;2023-10-19T01:26:46;52.25;;;29.50;;
51852;SDS011;37894;53.172;6.598;2023-10-19T01:29:12;51.35;;;28.20;;
51852;SDS011;37894;53.172;6.598;2023-10-19T01:31:42;47.35;;;26.33;;
51852;SDS011;37894;53.172;6.598;2023-10-19T01:34:21;46.70;;;26.52;;
51852;SDS011;37894;53.172;6.598;2023-10-19T01:36:47;49.63;;;27.27;;
51852;SDS011;37894;53.172;6.598;2023-10-19T01:39:16;53.22;;;27.13;;
51852;SDS011;37894;53.172;6.598;2023-10-19T01:41:44;48.83;;;26.38;;
51852;SDS011;37894;53.172;6.598;2023-10-19T01:44:10;52.80;;;27.73;;
51852;SDS011;37894;53.172;6.598;2023-10-19T01:46:40;47.75;;;27.15;;
51852;SDS011;37894;53.172;6.598;2023-10-19T01:49:08;50.10;;;26.90;;
51852;SDS011;37894;53.172;6.598;2023-10-19T01:51:35;53.20;;;27.38;;
51852;SDS011;37894;53.172;6.598;2023-10-19T01:54:04;50.78;;;28.38;;
51852;SDS011;37894;53.172;6.598;2023-10-19T01:56:31;46.95;;;26.88;;
51852;SDS011;37894;53.172;6.598;2023-10-19T01:59:00;51.40;;;26.65;;
51852;SDS011;37894;53.172;6.598;2023-10-19T02:01:26;46.50;;;27.25;;
51852;SDS011;37894;53.172;6.598;2023-10-19T02:03:52;54.33;;;28.63;;
51852;SDS011;37894;53.172;6.598;2023-10-19T02:06:28;54.55;;;28.58;;
51852;SDS011;37894;53.172;6.598;2023-10-19T02:09:01;53.97;;;29.05;;
51852;SDS011;37894;53.172;6.598;2023-10-19T02:11:34;53.22;;;29.30;;
51852;SDS011;37894;53.172;6.598;2023-10-19T02:14:03;50.83;;;29.95;;
51852;SDS011;37894;53.172;6.598;2023-10-19T02:16:36;54.35;;;25.95;;
51852;SDS011;37894;53.172;6.598;2023-10-19T02:19:03;50.65;;;27.60;;
51852;SDS011;37894;53.172;6.598;2023-10-19T02:21:28;55.00;;;28.88;;
51852;SDS011;37894;53.172;6.598;2023-10-19T02:23:58;64.03;;;31.70;;
51852;SDS011;37894;53.172;6.598;2023-10-19T02:26:25;55.22;;;29.15;;
51852;SDS011;37894;53.172;6.598;2023-10-19T02:28:52;45.70;;;27.13;;
51852;SDS011;37894;53.172;6.598;2023-10-19T02:31:18;52.95;;;28.60;;
51852;SDS011;37894;53.172;6.598;2023-10-19T02:33:48;52.22;;;29.35;;
51852;SDS011;37894;53.172;6.598;2023-10-19T02:36:20;54.03;;;28.02;;
51852;SDS011;37894;53.172;6.598;2023-10-19T02:38:47;61.47;;;32.08;;
51852;SDS011;37894;53.172;6.598;2023-10-19T02:41:17;59.88;;;28.42;;
51852;SDS011;37894;53.172;6.598;2023-10-19T02:43:44;59.28;;;30.33;;
51852;SDS011;37894;53.172;6.598;2023-10-19T02:46:21;49.90;;;26.77;;
51852;SDS011;37894;53.172;6.598;2023-10-19T02:48:48;50.60;;;26.48;;
51852;SDS011;37894;53.172;6.598;2023-10-19T02:51:15;59.13;;;27.98;;
51852;SDS011;37894;53.172;6.598;2023-10-19T02:53:40;56.08;;;27.65;;
51852;SDS011;37894;53.172;6.598;2023-10-19T02:56:14;58.58;;;28.00;;
51852;SDS011;37894;53.172;6.598;2023-10-19T02:58:49;49.97;;;28.13;;
51852;SDS011;37894;53.172;6.598;2023-10-19T03:01:19;51.17;;;26.00;;
51852;SDS011;37894;53.172;6.598;2023-10-19T03:03:50;54.60;;;28.17;;
51852;SDS011;37894;53.172;6.598;2023-10-19T03:06:19;49.50;;;26.65;;
51852;SDS011;37894;53.172;6.598;2023-10-19T03:08:48;48.90;;;25.88;;
51852;SDS011;37894;53.172;6.598;2023-10-19T03:11:23;55.20;;;26.52;;
51852;SDS011;37894;53.172;6.598;2023-10-19T03:13:50;55.33;;;26.13;;
51852;SDS011;37894;53.172;6.598;2023-10-19T03:16:19;53.42;;;26.70;;
51852;SDS011;37894;53.172;6.598;2023-10-19T03:18:46;48.63;;;24.58;;
51852;SDS011;37894;53.172;6.598;2023-10-19T03:21:13;48.47;;;24.52;;
51852;SDS011;37894;53.172;6.598;2023-10-19T03:23:38;49.83;;;24.13;;
51852;SDS011;37894;53.172;6.598;2023-10-19T03:26:05;53.08;;;25.42;;
51852;SDS011;37894;53.172;6.598;2023-10-19T03:28:44;46.28;;;23.05;;
51852;SDS011;37894;53.172;6.598;2023-10-19T03:31:11;52.38;;;24.70;;
51852;SDS011;37894;53.172;6.598;2023-10-19T03:33:45;56.17;;;26.30;;
51852;SDS011;37894;53.172;6.598;2023-10-19T03:36:15;39.85;;;21.65;;
51852;SDS011;37894;53.172;6.598;2023-10-19T03:38:41;55.75;;;25.75;;
51852;SDS011;37894;53.172;6.598;2023-10-19T03:41:09;48.53;;;25.80;;
51852;SDS011;37894;53.172;6.598;2023-10-19T03:43:35;46.42;;;24.73;;
51852;SDS011;37894;53.172;6.598;2023-10-19T03:46:06;47.13;;;23.08;;
51852;SDS011;37894;53.172;6.598;2023-10-19T03:48:44;42.80;;;23.20;;
51852;SDS011;37894;53.172;6.598;2023-10-19T03:51:11;48.53;;;23.40;;
51852;SDS011;37894;53.172;6.598;2023-10-19T03:53:39;45.53;;;22.83;;
51852;SDS011;37894;53.172;6.598;2023-10-19T03:56:09;43.90;;;21.67;;
51852;SDS011;37894;53.172;6.598;2023-10-19T03:58:36;46.75;;;23.33;;
51852;SDS011;37894;53.172;6.598;2023-10-19T04:01:04;49.65;;;23.45;;
51852;SDS011;37894;53.172;6.598;2023-10-19T04:03:30;44.53;;;22.98;;
51852;SDS011;37894;53.172;6.598;2023-10-19T04:05:56;49.28;;;24.50;;
51852;SDS011;37894;53.172;6.598;2023-10-19T04:08:25;42.75;;;21.35;;
51852;SDS011;37894;53.172;6.598;2023-10-19T04:10:52;47.10;;;22.77;;
51852;SDS011;37894;53.172;6.598;2023-10-19T04:13:34;40.92;;;20.48;;
51852;SDS011;37894;53.172;6.598;2023-10-19T04:16:03;43.13;;;20.98;;
51852;SDS011;37894;53.172;6.598;2023-10-19T04:18:30;41.22;;;21.95;;
51852;SDS011;37894;53.172;6.598;2023-10-19T04:20:56;44.20;;;20.90;;
51852;SDS011;37894;53.172;6.598;2023-10-19T04:23:23;50.00;;;21.75;;
51852;SDS011;37894;53.172;6.598;2023-10-19T04:25:52;49.63;;;22.77;;
51852;SDS011;37894;53.172;6.598;2023-10-19T04:28:21;58.58;;;22.58;;
51852;SDS011;37894;53.172;6.598;2023-10-19T04:30:56;43.42;;;19.98;;
51852;SDS011;37894;53.172;6.598;2023-10-19T04:33:27;42.65;;;22.27;;
51852;SDS011;37894;53.172;6.598;2023-10-19T04:35:54;63.85;;;23.83;;
51852;SDS011;37894;53.172;6.598;2023-10-19T04:38:22;38.97;;;19.50;;
51852;SDS011;37894;53.172;6.598;2023-10-19T04:40:48;40.40;;;20.77;;
51852;SDS011;37894;53.172;6.598;2023-10-19T04:43:14;33.55;;;18.67;;
51852;SDS011;37894;53.172;6.598;2023-10-19T04:45:41;41.45;;;19.63;;
51852;SDS011;37894;53.172;6.598;2023-10-19T04:48:09;42.60;;;20.05;;
51852;SDS011;37894;53.172;6.598;2023-10-19T04:50:35;38.55;;;19.48;;
51852;SDS011;37894;53.172;6.598;2023-10-19T04:53:01;34.67;;;17.58;;
51852;SDS011;37894;53.172;6.598;2023-10-19T04:55:28;35.55;;;18.65;;
51852;SDS011;37894;53.172;6.598;2023-10-19T04:57:55;31.38;;;17.77;;
51852;SDS011;37894;53.172;6.598;2023-10-19T05:00:22;35.80;;;18.25;;
51852;SDS011;37894;53.172;6.598;2023-10-19T05:02:49;29.42;;;17.08;;
51852;SDS011;37894;53.172;6.598;2023-10-19T05:05:17;36.33;;;17.98;;
51852;SDS011;37894;53.172;6.598;2023-10-19T05:07:43;42.80;;;19.35;;
51852;SDS011;37894;53.172;6.598;2023-10-19T05:10:09;46.17;;;18.98;;
51852;SDS011;37894;53.172;6.598;2023-10-19T05:12:36;30.45;;;15.77;;
51852;SDS011;37894;53.172;6.598;2023-10-19T05:15:02;32.88;;;15.77;;
51852;SDS011;37894;53.172;6.598;2023-10-19T05:17:28;23.08;;;14.73;;
51852;SDS011;37894;53.172;6.598;2023-10-19T05:19:53;25.13;;;14.32;;
51852;SDS011;37894;53.172;6.598;2023-10-19T05:22:19;30.02;;;16.20;;
51852;SDS011;37894;53.172;6.598;2023-10-19T05:24:46;23.50;;;13.77;;
51852;SDS011;37894;53.172;6.598;2023-10-19T05:27:12;29.58;;;15.73;;
51852;SDS011;37894;53.172;6.598;2023-10-19T05:29:38;24.60;;;13.95;;
51852;SDS011;37894;53.172;6.598;2023-10-19T05:32:05;27.33;;;14.15;;
51852;SDS011;37894;53.172;6.598;2023-10-19T05:34:30;24.20;;;14.18;;
51852;SDS011;37894;53.172;6.598;2023-10-19T05:37:00;27.48;;;14.48;;
51852;SDS011;37894;53.172;6.598;2023-10-19T05:39:30;27.27;;;14.10;;
51852;SDS011;37894;53.172;6.598;2023-10-19T05:41:58;29.60;;;15.85;;
51852;SDS011;37894;53.172;6.598;2023-10-19T05:44:26;31.42;;;15.02;;
51852;SDS011;37894;53.172;6.598;2023-10-19T05:46:52;39.80;;;16.77;;
51852;SDS011;37894;53.172;6.598;2023-10-19T05:49:19;24.33;;;14.10;;
51852;SDS011;37894;53.172;6.598;2023-10-19T05:51:45;35.88;;;15.73;;
51852;SDS011;37894;53.172;6.598;2023-10-19T05:54:12;21.38;;;12.13;;
51852;SDS011;37894;53.172;6.598;2023-10-19T05:56:38;22.42;;;13.43;;
51852;SDS011;37894;53.172;6.598;2023-10-19T05:59:03;26.10;;;14.55;;
51852;SDS011;37894;53.172;6.598;2023-10-19T06:01:30;25.40;;;13.63;;
51852;SDS011;37894;53.172;6.598;2023-10-19T06:03:56;24.88;;;12.88;;
51852;SDS011;37894;53.172;6.598;2023-10-19T06:06:22;23.88;;;13.18;;
51852;SDS011;37894;53.172;6.598;2023-10-19T06:08:48;20.40;;;13.45;;
51852;SDS011;37894;53.172;6.598;2023-10-19T06:11:18;20.17;;;13.15;;
51852;SDS011;37894;53.172;6.598;2023-10-19T06:13:45;20.60;;;12.10;;
51852;SDS011;37894;53.172;6.598;2023-10-19T06:16:11;21.30;;;12.32;;
51852;SDS011;37894;53.172;6.598;2023-10-19T06:18:37;20.48;;;12.15;;
51852;SDS011;37894;53.172;6.598;2023-10-19T06:21:02;18.70;;;11.43;;
51852;SDS011;37894;53.172;6.598;2023-10-19T06:23:29;19.13;;;11.90;;
51852;SDS011;37894;53.172;6.598;2023-10-19T06:25:56;19.13;;;11.32;;
51852;SDS011;37894;53.172;6.598;2023-10-19T06:28:22;17.73;;;10.93;;
51852;SDS011;37894;53.172;6.598;2023-10-19T06:30:48;16.15;;;10.73;;
51852;SDS011;37894;53.172;6.598;2023-10-19T06:33:15;17.92;;;10.35;;
51852;SDS011;37894;53.172;6.598;2023-10-19T06:35:41;16.88;;;9.95;;
51852;SDS011;37894;53.172;6.598;2023-10-19T06:38:06;16.38;;;10.13;;
51852;SDS011;37894;53.172;6.598;2023-10-19T06:40:34;18.70;;;10.65;;
51852;SDS011;37894;53.172;6.598;2023-10-19T06:43:03;17.48;;;9.77;;
51852;SDS011;37894;53.172;6.598;2023-10-19T06:45:30;18.33;;;10.25;;
51852;SDS011;37894;53.172;6.598;2023-10-19T06:47:57;17.02;;;9.77;;
51852;SDS011;37894;53.172;6.598;2023-10-19T06:50:26;16.70;;;9.63;;
51852;SDS011;37894;53.172;6.598;2023-10-19T06:52:51;14.38;;;9.05;;
51852;SDS011;37894;53.172;6.598;2023-10-19T06:55:19;13.77;;;9.60;;
51852;SDS011;37894;53.172;6.598;2023-10-19T06:57:50;16.42;;;9.88;;
51852;SDS011;37894;53.172;6.598;2023-10-19T07:00:17;13.10;;;9.43;;
51852;SDS011;37894;53.172;6.598;2023-10-19T07:02:47;17.58;;;10.80;;
51852;SDS011;37894;53.172;6.598;2023-10-19T07:05:16;16.10;;;9.18;;
51852;SDS011;37894;53.172;6.598;2023-10-19T07:07:49;16.10;;;10.18;;
51852;SDS011;37894;53.172;6.598;2023-10-19T07:10:17;17.85;;;9.85;;
51852;SDS011;37894;53.172;6.598;2023-10-19T07:12:47;15.32;;;9.73;;
51852;SDS011;37894;53.172;6.598;2023-10-19T07:15:16;16.33;;;9.45;;
51852;SDS011;37894;53.172;6.598;2023-10-19T07:17:45;13.35;;;8.18;;
51852;SDS011;37894;53.172;6.598;2023-10-19T07:20:12;12.90;;;8.23;;
51852;SDS011;37894;53.172;6.598;2023-10-19T07:23:00;11.68;;;8.18;;
51852;SDS011;37894;53.172;6.598;2023-10-19T07:25:47;12.57;;;8.57;;
51852;SDS011;37894;53.172;6.598;2023-10-19T07:28:18;11.03;;;7.93;;
51852;SDS011;37894;53.172;6.598;2023-10-19T07:30:44;10.55;;;7.47;;
51852;SDS011;37894;53.172;6.598;2023-10-19T07:33:14;10.93;;;7.13;;
51852;SDS011;37894;53.172;6.598;2023-10-19T07:35:43;11.15;;;7.53;;
51852;SDS011;37894;53.172;6.598;2023-10-19T07:38:15;13.73;;;7.90;;
51852;SDS011;37894;53.172;6.598;2023-10-19T07:40:42;10.82;;;7.65;;
51852;SDS011;37894;53.172;6.598;2023-10-19T07:43:08;10.55;;;6.93;;
51852;SDS011;37894;53.172;6.598;2023-10-19T07:45:35;11.40;;;7.32;;
51852;SDS011;37894;53.172;6.598;2023-10-19T07:48:02;9.77;;;6.63;;
51852;SDS011;37894;53.172;6.598;2023-10-19T07:50:35;9.73;;;6.80;;
51852;SDS011;37894;53.172;6.598;2023-10-19T07:53:02;10.05;;;6.75;;
51852;SDS011;37894;53.172;6.598;2023-10-19T07:55:28;9.55;;;6.22;;
51852;SDS011;37894;53.172;6.598;2023-10-19T07:57:56;11.77;;;7.18;;
51852;SDS011;37894;53.172;6.598;2023-10-19T08:00:25;10.57;;;6.68;;
51852;SDS011;37894;53.172;6.598;2023-10-19T08:02:51;11.38;;;7.40;;
51852;SDS011;37894;53.172;6.598;2023-10-19T08:05:19;12.15;;;8.10;;
51852;SDS011;37894;53.172;6.598;2023-10-19T08:07:45;12.05;;;7.57;;
51852;SDS011;37894;53.172;6.598;2023-10-19T08:10:15;10.20;;;7.97;;
51852;SDS011;37894;53.172;6.598;2023-10-19T08:12:42;10.50;;;7.72;;
51852;SDS011;37894;53.172;6.598;2023-10-19T08:15:09;13.25;;;8.18;;
51852;SDS011;37894;53.172;6.598;2023-10-19T08:17:39;10.57;;;7.65;;
51852;SDS011;37894;53.172;6.598;2023-10-19T08:20:07;11.35;;;7.95;;
51852;SDS011;37894;53.172;6.598;2023-10-19T08:22:48;12.57;;;7.55;;
51852;SDS011;37894;53.172;6.598;2023-10-19T08:25:15;11.50;;;7.10;;
51852;SDS011;37894;53.172;6.598;2023-10-19T08:27:41;10.98;;;7.82;;
51852;SDS011;37894;53.172;6.598;2023-10-19T08:30:10;12.15;;;9.15;;
51852;SDS011;37894;53.172;6.598;2023-10-19T08:32:38;14.85;;;9.07;;
51852;SDS011;37894;53.172;6.598;2023-10-19T08:35:05;13.40;;;9.10;;
51852;SDS011;37894;53.172;6.598;2023-10-19T08:37:31;14.07;;;8.93;;
51852;SDS011;37894;53.172;6.598;2023-10-19T08:39:57;11.70;;;8.55;;
51852;SDS011;37894;53.172;6.598;2023-10-19T08:42:23;13.80;;;8.43;;
51852;SDS011;37894;53.172;6.598;2023-10-19T08:44:49;13.43;;;9.10;;
51852;SDS011;37894;53.172;6.598;2023-10-19T08:47:15;14.15;;;9.93;;
51852;SDS011;37894;53.172;6.598;2023-10-19T08:49:41;13.60;;;9.40;;
51852;SDS011;37894;53.172;6.598;2023-10-19T08:52:07;15.48;;;9.45;;
51852;SDS011;37894;53.172;6.598;2023-10-19T08:54:34;12.15;;;8.90;;
51852;SDS011;37894;53.172;6.598;2023-10-19T08:57:00;13.52;;;9.80;;
51852;SDS011;37894;53.172;6.598;2023-10-19T08:59:26;13.18;;;9.38;;
51852;SDS011;37894;53.172;6.598;2023-10-19T09:02:01;14.50;;;10.05;;
51852;SDS011;37894;53.172;6.598;2023-10-19T09:04:27;15.30;;;9.80;;
51852;SDS011;37894;53.172;6.598;2023-10-19T09:06:54;13.25;;;10.30;;
51852;SDS011;37894;53.172;6.598;2023-10-19T09:09:23;15.57;;;9.73;;
51852;SDS011;37894;53.172;6.598;2023-10-19T09:11:51;14.23;;;9.30;;
51852;SDS011;37894;53.172;6.598;2023-10-19T09:17:15;15.27;;;9.60;;
51852;SDS011;37894;53.172;6.598;2023-10-19T09:19:44;13.07;;;9.85;;
51852;SDS011;37894;53.172;6.598;2023-10-19T09:22:12;14.02;;;10.07;;
51852;SDS011;37894;53.172;6.598;2023-10-19T09:24:47;13.95;;;10.52;;
51852;SDS011;37894;53.172;6.598;2023-10-19T09:27:18;13.10;;;9.38;;
51852;SDS011;37894;53.172;6.598;2023-10-19T09:29:44;13.27;;;9.48;;
51852;SDS011;37894;53.172;6.598;2023-10-19T09:32:10;15.73;;;10.30;;
51852;SDS011;37894;53.172;6.598;2023-10-19T09:34:39;16.33;;;10.35;;
51852;SDS011;37894;53.172;6.598;2023-10-19T09:37:08;14.90;;;9.70;;
51852;SDS011;37894;53.172;6.598;2023-10-19T09:39:35;14.80;;;9.68;;
51852;SDS011;37894;53.172;6.598;2023-10-19T09:42:10;14.35;;;9.63;;
51852;SDS011;37894;53.172;6.598;2023-10-19T09:44:43;14.25;;;10.00;;
51852;SDS011;37894;53.172;6.598;2023-10-19T09:47:13;16.58;;;9.68;;
51852;SDS011;37894;53.172;6.598;2023-10-19T09:49:42;20.52;;;9.77;;
51852;SDS011;37894;53.172;6.598;2023-10-19T09:52:09;16.67;;;10.52;;
51852;SDS011;37894;53.172;6.598;2023-10-19T09:57:14;14.00;;;9.63;;
51852;SDS011;37894;53.172;6.598;2023-10-19T09:59:49;15.38;;;9.40;;
51852;SDS011;37894;53.172;6.598;2023-10-19T10:02:21;14.77;;;9.80;;
51852;SDS011;37894;53.172;6.598;2023-10-19T10:04:47;15.38;;;9.65;;
51852;SDS011;37894;53.172;6.598;2023-10-19T10:07:14;14.93;;;10.18;;
51852;SDS011;37894;53.172;6.598;2023-10-19T10:09:43;14.80;;;9.90;;
51852;SDS011;37894;53.172;6.598;2023-10-19T10:15:02;11.73;;;8.90;;
51852;SDS011;37894;53.172;6.598;2023-10-19T10:17:36;14.50;;;9.50;;
51852;SDS011;37894;53.172;6.598;2023-10-19T10:22:43;13.18;;;8.93;;
51852;SDS011;37894;53.172;6.598;2023-10-19T10:25:30;13.88;;;9.18;;
51852;SDS011;37894;53.172;6.598;2023-10-19T10:27:56;17.42;;;9.07;;
51852;SDS011;37894;53.172;6.598;2023-10-19T10:30:23;13.88;;;8.98;;
51852;SDS011;37894;53.172;6.598;2023-10-19T10:32:50;14.35;;;9.38;;
51852;SDS011;37894;53.172;6.598;2023-10-19T10:38:10;13.65;;;9.13;;
51852;SDS011;37894;53.172;6.598;2023-10-19T10:40:45;13.23;;;9.02;;
51852;SDS011;37894;53.172;6.598;2023-10-19T10:43:12;15.00;;;9.18;;
51852;SDS011;37894;53.172;6.598;2023-10-19T10:45:38;14.07;;;9.02;;
51852;SDS011;37894;53.172;6.598;2023-10-19T10:48:14;12.77;;;9.00;;
51852;SDS011;37894;53.172;6.598;2023-10-19T10:50:40;13.50;;;9.15;;
51852;SDS011;37894;53.172;6.598;2023-10-19T10:53:07;19.90;;;9.40;;
51852;SDS011;37894;53.172;6.598;2023-10-19T10:55:33;14.35;;;8.98;;
51852;SDS011;37894;53.172;6.598;2023-10-19T10:57:59;14.13;;;8.98;;
51852;SDS011;37894;53.172;6.598;2023-10-19T11:00:25;13.20;;;9.13;;
51852;SDS011;37894;53.172;6.598;2023-10-19T11:03:01;12.60;;;8.15;;
51852;SDS011;37894;53.172;6.598;2023-10-19T11:05:33;18.50;;;9.30;;
51852;SDS011;37894;53.172;6.598;2023-10-19T11:08:15;14.52;;;10.10;;
51852;SDS011;37894;53.172;6.598;2023-10-19T11:10:43;15.02;;;8.77;;
51852;SDS011;37894;53.172;6.598;2023-10-19T11:13:14;13.65;;;9.05;;
51852;SDS011;37894;53.172;6.598;2023-10-19T11:15:49;19.15;;;9.02;;
51852;SDS011;37894;53.172;6.598;2023-10-19T11:18:35;14.68;;;9.10;;
51852;SDS011;37894;53.172;6.598;2023-10-19T11:21:06;16.00;;;9.48;;
51852;SDS011;37894;53.172;6.598;2023-10-19T11:23:55;13.90;;;9.95;;
51852;SDS011;37894;53.172;6.598;2023-10-19T11:26:22;13.57;;;9.13;;
51852;SDS011;37894;53.172;6.598;2023-10-19T11:28:59;13.77;;;9.07;;
51852;SDS011;37894;53.172;6.598;2023-10-19T11:31:26;15.45;;;8.68;;
51852;SDS011;37894;53.172;6.598;2023-10-19T11:33:53;15.35;;;9.60;;
51852;SDS011;37894;53.172;6.598;2023-10-19T11:36:23;16.92;;;9.48;;
51852;SDS011;37894;53.172;6.598;2023-10-19T11:38:52;15.43;;;10.45;;
51852;SDS011;37894;53.172;6.598;2023-10-19T11:41:18;19.27;;;9.77;;
51852;SDS011;37894;53.172;6.598;2023-10-19T11:43:45;16.25;;;10.35;;
51852;SDS011;37894;53.172;6.598;2023-10-19T11:46:12;17.45;;;10.25;;
51852;SDS011;37894;53.172;6.598;2023-10-19T11:48:40;20.35;;;11.77;;
51852;SDS011;37894;53.172;6.598;2023-10-19T11:51:07;18.55;;;12.20;;
51852;SDS011;37894;53.172;6.598;2023-10-19T11:53:36;19.95;;;12.90;;
51852;SDS011;37894;53.172;6.598;2023-10-19T11:56:03;25.33;;;14.65;;
51852;SDS011;37894;53.172;6.598;2023-10-19T11:58:31;23.27;;;14.60;;
51852;SDS011;37894;53.172;6.598;2023-10-19T12:00:58;22.45;;;15.18;;
51852;SDS011;37894;53.172;6.598;2023-10-19T12:03:24;25.00;;;15.63;;
51852;SDS011;37894;53.172;6.598;2023-10-19T12:05:50;19.73;;;14.20;;
51852;SDS011;37894;53.172;6.598;2023-10-19T12:08:18;22.48;;;14.40;;
51852;SDS011;37894;53.172;6.598;2023-10-19T12:10:44;23.33;;;14.43;;
51852;SDS011;37894;53.172;6.598;2023-10-19T12:13:09;17.58;;;12.35;;
51852;SDS011;37894;53.172;6.598;2023-10-19T12:15:35;23.02;;;13.43;;
51852;SDS011;37894;53.172;6.598;2023-10-19T12:18:01;16.58;;;11.52;;
51852;SDS011;37894;53.172;6.598;2023-10-19T12:20:28;18.23;;;12.68;;
51852;SDS011;37894;53.172;6.598;2023-10-19T12:22:56;17.17;;;10.68;;
51852;SDS011;37894;53.172;6.598;2023-10-19T12:25:24;18.88;;;11.60;;
51852;SDS011;37894;53.172;6.598;2023-10-19T12:28:00;18.08;;;11.48;;
51852;SDS011;37894;53.172;6.598;2023-10-19T12:30:26;18.60;;;12.38;;
51852;SDS011;37894;53.172;6.598;2023-10-19T12:32:57;17.55;;;11.77;;
51852;SDS011;37894;53.172;6.598;2023-10-19T12:35:26;19.15;;;13.27;;
51852;SDS011;37894;53.172;6.598;2023-10-19T12:38:09;21.30;;;14.32;;
51852;SDS011;37894;53.172;6.598;2023-10-19T12:43:08;21.17;;;15.07;;
51852;SDS011;37894;53.172;6.598;2023-10-19T12:45:35;19.98;;;15.40;;
51852;SDS011;37894;53.172;6.598;2023-10-19T12:48:02;27.80;;;16.05;;
51852;SDS011;37894;53.172;6.598;2023-10-19T12:50:29;24.83;;;16.52;;
51852;SDS011;37894;53.172;6.598;2023-10-19T12:52:56;28.02;;;17.88;;
51852;SDS011;37894;53.172;6.598;2023-10-19T12:55:21;28.90;;;18.92;;
51852;SDS011;37894;53.172;6.598;2023-10-19T12:57:52;32.28;;;19.05;;
51852;SDS011;37894;53.172;6.598;2023-10-19T13:00:18;25.40;;;17.48;;
51852;SDS011;37894;53.172;6.598;2023-10-19T13:03:01;27.83;;;17.42;;
51852;SDS011;37894;53.172;6.598;2023-10-19T13:05:36;23.52;;;16.98;;
51852;SDS011;37894;53.172;6.598;2023-10-19T13:08:04;21.48;;;14.77;;
51852;SDS011;37894;53.172;6.598;2023-10-19T13:10:32;22.35;;;15.43;;
51852;SDS011;37894;53.172;6.598;2023-10-19T13:13:02;19.65;;;14.13;;
51852;SDS011;37894;53.172;6.598;2023-10-19T13:15:29;22.67;;;14.55;;
51852;SDS011;37894;53.172;6.598;2023-10-19T13:18:03;22.02;;;14.98;;
51852;SDS011;37894;53.172;6.598;2023-10-19T13:20:35;22.10;;;14.25;;
51852;SDS011;37894;53.172;6.598;2023-10-19T13:23:05;25.60;;;15.52;;
51852;SDS011;37894;53.172;6.598;2023-10-19T13:25:33;22.85;;;14.10;;
51852;SDS011;37894;53.172;6.598;2023-10-19T13:28:11;21.02;;;13.43;;
51852;SDS011;37894;53.172;6.598;2023-10-19T13:30:39;17.13;;;12.77;;
51852;SDS011;37894;53.172;6.598;2023-10-19T13:33:07;22.65;;;13.25;;
51852;SDS011;37894;53.172;6.598;2023-10-19T13:35:37;19.52;;;13.15;;
51852;SDS011;37894;53.172;6.598;2023-10-19T13:38:04;20.85;;;13.05;;
51852;SDS011;37894;53.172;6.598;2023-10-19T13:40:31;21.25;;;12.32;;
51852;SDS011;37894;53.172;6.598;2023-10-19T13:42:57;17.13;;;11.75;;
51852;SDS011;37894;53.172;6.598;2023-10-19T13:45:24;20.48;;;11.75;;
51852;SDS011;37894;53.172;6.598;2023-10-19T13:47:50;19.40;;;12.82;;
51852;SDS011;37894;53.172;6.598;2023-10-19T13:50:23;22.70;;;12.45;;
51852;SDS011;37894;53.172;6.598;2023-10-19T13:52:53;20.83;;;12.70;;
51852;SDS011;37894;53.172;6.598;2023-10-19T13:55:19;19.40;;;12.18;;
51852;SDS011;37894;53.172;6.598;2023-10-19T13:57:48;20.23;;;11.70;;
51852;SDS011;37894;53.172;6.598;2023-10-19T14:00:14;22.45;;;12.52;;
51852;SDS011;37894;53.172;6.598;2023-10-19T14:02:56;24.80;;;14.00;;
51852;SDS011;37894;53.172;6.598;2023-10-19T14:05:23;22.30;;;12.27;;
51852;SDS011;37894;53.172;6.598;2023-10-19T14:07:50;22.33;;;12.25;;
51852;SDS011;37894;53.172;6.598;2023-10-19T14:10:19;24.23;;;13.38;;
51852;SDS011;37894;53.172;6.598;2023-10-19T14:12:46;22.40;;;13.07;;
51852;SDS011;37894;53.172;6.598;2023-10-19T14:15:17;21.80;;;12.45;;
51852;SDS011;37894;53.172;6.598;2023-10-19T14:17:44;19.05;;;11.90;;
51852;SDS011;37894;53.172;6.598;2023-10-19T14:20:11;23.02;;;12.65;;
51852;SDS011;37894;53.172;6.598;2023-10-19T14:22:42;18.60;;;12.57;;
51852;SDS011;37894;53.172;6.598;2023-10-19T14:25:10;17.33;;;10.88;;
51852;SDS011;37894;53.172;6.598;2023-10-19T14:27:43;20.70;;;11.65;;
51852;SDS011;37894;53.172;6.598;2023-10-19T14:30:10;20.13;;;11.63;;
51852;SDS011;37894;53.172;6.598;2023-10-19T14:32:42;21.27;;;11.07;;
51852;SDS011;37894;53.172;6.598;2023-10-19T14:35:09;19.65;;;11.23;;
51852;SDS011;37894;53.172;6.598;2023-10-19T14:37:42;26.55;;;12.80;;
51852;SDS011;37894;53.172;6.598;2023-10-19T14:40:09;18.50;;;11.68;;
51852;SDS011;37894;53.172;6.598;2023-10-19T14:42:42;21.58;;;12.27;;
51852;SDS011;37894;53.172;6.598;2023-10-19T14:45:12;20.20;;;12.30;;
51852;SDS011;37894;53.172;6.598;2023-10-19T14:47:39;26.13;;;13.98;;
51852;SDS011;37894;53.172;6.598;2023-10-19T14:50:13;22.95;;;13.60;;
51852;SDS011;37894;53.172;6.598;2023-10-19T14:52:42;24.67;;;12.60;;
51852;SDS011;37894;53.172;6.598;2023-10-19T14:55:12;22.10;;;12.75;;